Time;durP1;ratioP1;P1;durP2;ratioP2;P2;SDS_P1;SDS_P2;PMS_P1;PMS_P2;Temp;Humidity;BMP_temperature;BMP_pressure;BME280_temperature;BME280_humidity;BME280_pressure;Samples;Min_cycle;Max_cycle;Signal;HPM_P1;HPM_P2
2021/09/19 04:01:22;;;;;;;4.15;3.80;;;11.80;99.90;;;;;;5561052;23;20233;-70
2021/09/19 04:03:48;;;;;;;8.60;4.80;;;11.80;99.90;;;;;;4955331;28;20213;-70
2021/09/19 04:06:15;;;;;;;5.55;4.25;;;11.80;99.90;;;;;;4955112;28;20205;-70
2021/09/19 04:08:42;;;;;;;4.65;4.18;;;11.80;99.90;;;;;;4954975;28;20209;-70
2021/09/19 04:11:09;;;;;;;4.72;4.18;;;11.80;99.90;;;;;;4955537;28;20221;-70
2021/09/19 04:13:35;;;;;;;4.20;3.78;;;11.80;99.90;;;;;;4938867;28;20210;-70
2021/09/19 04:16:02;;;;;;;5.55;5.05;;;11.90;99.90;;;;;;4936199;29;20281;-70
2021/09/19 04:18:30;;;;;;;7.00;3.85;;;11.90;99.90;;;;;;4949228;29;20268;-70
2021/09/19 04:20:57;;;;;;;4.80;4.25;;;12.00;99.90;;;;;;4936663;29;20296;-70
2021/09/19 04:23:23;;;;;;;4.63;4.22;;;11.90;99.90;;;;;;4951796;28;20209;-70
2021/09/19 04:25:50;;;;;;;4.53;4.13;;;12.00;99.90;;;;;;4971519;28;20209;-70
2021/09/19 04:28:17;;;;;;;6.18;3.95;;;12.00;99.90;;;;;;4971736;28;20233;-71
2021/09/19 04:30:44;;;;;;;4.82;4.00;;;12.00;99.90;;;;;;4953887;28;20262;-70
2021/09/19 04:33:12;;;;;;;5.38;4.28;;;12.00;99.90;;;;;;4962978;28;20336;-70
2021/09/19 04:35:40;;;;;;;5.93;4.15;;;12.00;99.90;;;;;;4970161;28;20235;-70
2021/09/19 04:38:07;;;;;;;4.20;3.90;;;12.00;99.90;;;;;;4963339;29;20252;-71
2021/09/19 04:40:34;;;;;;;5.43;4.32;;;12.00;99.90;;;;;;4962903;28;20267;-71
2021/09/19 04:43:00;;;;;;;3.97;3.67;;;12.00;99.90;;;;;;4970004;28;20271;-71
2021/09/19 04:45:27;;;;;;;7.45;4.15;;;12.00;99.90;;;;;;4958477;28;20216;-71
2021/09/19 04:47:53;;;;;;;4.90;4.10;;;12.00;99.90;;;;;;4951656;29;20222;-70
2021/09/19 04:50:20;;;;;;;5.25;4.10;;;12.00;99.90;;;;;;4957788;29;20205;-71
2021/09/19 04:52:48;;;;;;;4.72;4.30;;;12.00;99.90;;;;;;4960697;28;20213;-69
2021/09/19 04:55:15;;;;;;;4.97;4.47;;;12.00;99.90;;;;;;4959672;28;20201;-69
2021/09/19 04:57:41;;;;;;;4.68;4.03;;;12.00;99.90;;;;;;4957899;28;20224;-69
2021/09/19 05:00:09;;;;;;;4.10;3.80;;;12.10;99.90;;;;;;4943335;28;20245;-70
2021/09/19 05:02:36;;;;;;;5.43;4.47;;;12.10;99.90;;;;;;4940883;29;20281;-69
2021/09/19 05:05:02;;;;;;;4.43;3.75;;;12.10;99.90;;;;;;4941407;29;20237;-72
2021/09/19 05:07:29;;;;;;;4.35;3.80;;;12.10;99.90;;;;;;4940474;28;20214;-69
2021/09/19 05:09:57;;;;;;;4.63;4.10;;;12.10;99.90;;;;;;4939945;29;20218;-70
2021/09/19 05:12:23;;;;;;;4.95;3.50;;;12.10;99.90;;;;;;4939521;29;20226;-71
2021/09/19 05:14:53;;;;;;;4.53;3.80;;;12.10;99.90;;;;;;4943481;29;20650;-69
2021/09/19 05:17:20;;;;;;;3.92;3.60;;;12.10;99.90;;;;;;4953249;28;20221;-70
2021/09/19 05:19:46;;;;;;;4.18;3.65;;;12.10;99.90;;;;;;4942387;28;20281;-70
2021/09/19 05:22:13;;;;;;;4.05;3.65;;;12.10;99.90;;;;;;4947921;29;20229;-70
2021/09/19 05:24:40;;;;;;;3.78;3.47;;;12.10;99.90;;;;;;4945257;28;20337;-69
2021/09/19 05:27:08;;;;;;;3.85;3.45;;;12.10;99.90;;;;;;4937272;29;20245;-70
2021/09/19 05:29:34;;;;;;;4.40;4.00;;;12.10;99.90;;;;;;4952093;29;20268;-70
2021/09/19 05:32:01;;;;;;;4.05;3.75;;;12.10;99.90;;;;;;4944485;28;20233;-70
2021/09/19 05:34:31;;;;;;;4.20;3.90;;;12.10;99.90;;;;;;4936519;28;20216;-69
2021/09/19 05:36:57;;;;;;;3.97;3.67;;;12.10;99.90;;;;;;4937130;29;20702;-71
2021/09/19 05:39:24;;;;;;;4.43;4.05;;;12.10;99.90;;;;;;4935150;29;20209;-71
2021/09/19 05:41:51;;;;;;;4.10;3.80;;;12.10;99.90;;;;;;4943878;29;20291;-71
2021/09/19 05:44:19;;;;;;;3.97;3.58;;;12.10;99.90;;;;;;4953370;28;20245;-72
2021/09/19 05:46:46;;;;;;;3.75;3.45;;;12.10;99.90;;;;;;4952046;28;20198;-71
2021/09/19 05:49:13;;;;;;;6.80;4.20;;;12.10;99.90;;;;;;4955154;28;20286;-72
2021/09/19 05:51:40;;;;;;;4.15;3.58;;;12.20;99.90;;;;;;4953473;28;20225;-68
2021/09/19 05:54:06;;;;;;;5.45;3.33;;;12.20;99.90;;;;;;4954439;28;20236;-68
2021/09/19 05:56:33;;;;;;;4.13;3.70;;;12.20;99.90;;;;;;4946884;28;20276;-69
2021/09/19 05:59:00;;;;;;;4.15;3.85;;;12.20;99.90;;;;;;4935011;29;20218;-69
2021/09/19 06:01:28;;;;;;;3.78;3.47;;;12.20;99.90;;;;;;4945701;29;20316;-69
2021/09/19 06:03:54;;;;;;;4.50;3.25;;;12.30;99.90;;;;;;4952671;28;20205;-71
2021/09/19 06:06:21;;;;;;;4.72;3.65;;;12.30;99.90;;;;;;4948337;28;20575;-71
2021/09/19 06:08:47;;;;;;;4.07;3.70;;;12.40;99.90;;;;;;4954092;28;20744;-71
2021/09/19 06:11:14;;;;;;;4.35;3.97;;;12.40;99.90;;;;;;4944313;28;20285;-71
2021/09/19 06:13:41;;;;;;;3.85;3.55;;;12.40;99.90;;;;;;4933763;29;20218;-71
2021/09/19 06:16:08;;;;;;;6.95;3.75;;;12.40;99.90;;;;;;4948780;29;20205;-71
2021/09/19 06:18:36;;;;;;;5.90;4.22;;;12.40;99.90;;;;;;4954446;28;20233;-71
2021/09/19 06:21:03;;;;;;;3.55;3.20;;;12.40;99.90;;;;;;4937845;28;20229;-69
2021/09/19 06:23:30;;;;;;;4.57;3.40;;;12.40;99.90;;;;;;4934988;29;20269;-69
2021/09/19 06:25:57;;;;;;;4.93;4.40;;;12.50;99.90;;;;;;4951180;29;20279;-69
2021/09/19 06:28:23;;;;;;;3.67;3.47;;;12.50;99.90;;;;;;4955539;28;20324;-69
2021/09/19 06:30:50;;;;;;;5.10;3.20;;;12.50;99.90;;;;;;4941687;28;20237;-69
2021/09/19 06:33:17;;;;;;;4.63;3.53;;;12.50;99.90;;;;;;4954374;28;20614;-69
2021/09/19 06:35:45;;;;;;;3.70;3.42;;;12.60;99.90;;;;;;4953638;28;20304;-69
2021/09/19 06:38:11;;;;;;;7.47;3.60;;;12.60;99.90;;;;;;4954441;28;20307;-68
2021/09/19 06:40:38;;;;;;;3.40;3.20;;;12.60;99.90;;;;;;4954687;28;20229;-70
2021/09/19 06:43:05;;;;;;;3.65;3.35;;;12.60;99.90;;;;;;4935695;28;20301;-70
2021/09/19 06:45:31;;;;;;;3.38;3.17;;;12.70;99.90;;;;;;4944373;29;20264;-69
2021/09/19 06:47:58;;;;;;;3.95;3.58;;;12.70;99.90;;;;;;4953308;28;20205;-70
2021/09/19 06:50:25;;;;;;;3.88;3.45;;;12.70;99.90;;;;;;4953905;28;20217;-69
2021/09/19 06:52:53;;;;;;;3.85;3.55;;;12.70;99.90;;;;;;4942540;28;20257;-70
2021/09/19 06:55:19;;;;;;;4.10;3.80;;;12.80;99.90;;;;;;4950538;29;20213;-69
2021/09/19 06:57:47;;;;;;;4.43;3.72;;;12.80;99.90;;;;;;4956596;28;20491;-68
2021/09/19 07:00:14;;;;;;;3.95;3.55;;;12.80;99.90;;;;;;4950773;28;20297;-69
2021/09/19 07:02:41;;;;;;;4.13;3.90;;;12.80;99.90;;;;;;4940059;29;20726;-68
2021/09/19 07:05:09;;;;;;;4.32;4.03;;;12.90;99.90;;;;;;4937874;29;20958;-68
2021/09/19 07:07:36;;;;;;;3.67;3.37;;;12.90;99.90;;;;;;4946828;29;20205;-72
2021/09/19 07:10:05;;;;;;;4.18;2.85;;;12.90;99.90;;;;;;4955118;28;20838;-72
2021/09/19 07:12:31;;;;;;;5.20;3.23;;;12.90;99.90;;;;;;4956822;28;20233;-72
2021/09/19 07:14:58;;;;;;;3.27;2.80;;;12.90;99.90;;;;;;4944833;28;20469;-72
2021/09/19 07:17:25;;;;;;;5.57;4.40;;;13.00;99.90;;;;;;4938190;29;21025;-70
2021/09/19 07:19:52;;;;;;;7.00;3.53;;;13.00;99.90;;;;;;4944898;28;20576;-70
2021/09/19 07:22:19;;;;;;;3.50;3.20;;;13.10;99.90;;;;;;4956136;28;20480;-72
2021/09/19 07:24:45;;;;;;;3.83;3.50;;;13.10;99.90;;;;;;4956968;28;20523;-73
2021/09/19 07:27:13;;;;;;;5.30;3.57;;;13.10;99.90;;;;;;4953828;28;20727;-72
2021/09/19 07:29:40;;;;;;;5.33;3.77;;;13.20;99.90;;;;;;4956099;28;20829;-72
2021/09/19 07:32:08;;;;;;;3.20;3.00;;;13.20;99.90;;;;;;4950975;28;20540;-70
2021/09/19 07:34:34;;;;;;;4.53;2.87;;;13.20;99.90;;;;;;4937755;28;20592;-70
2021/09/19 07:37:02;;;;;;;3.60;3.40;;;13.30;99.90;;;;;;4947696;29;20950;-71
2021/09/19 07:39:29;;;;;;;3.90;3.30;;;13.30;99.90;;;;;;4956807;28;20469;-70
2021/09/19 07:41:56;;;;;;;3.60;3.30;;;13.30;99.90;;;;;;4943909;28;20500;-70
2021/09/19 07:44:24;;;;;;;3.53;3.33;;;13.30;99.90;;;;;;4937258;29;20840;-70
2021/09/19 07:46:53;;;;;;;5.70;4.10;;;13.40;99.90;;;;;;4947067;28;20476;-71
2021/09/19 07:49:21;;;;;;;3.03;2.73;;;13.40;99.90;;;;;;4955344;28;20465;-71
2021/09/19 07:51:48;;;;;;;3.37;3.07;;;13.40;99.90;;;;;;4955416;28;20893;-71
2021/09/19 07:54:16;;;;;;;3.40;3.17;;;13.50;99.90;;;;;;4954417;28;20953;-71
2021/09/19 07:56:43;;;;;;;3.60;3.30;;;13.50;99.90;;;;;;4957157;28;20461;-71
2021/09/19 07:59:09;;;;;;;3.67;3.47;;;13.60;99.90;;;;;;4958083;28;20496;-71
2021/09/19 08:01:37;;;;;;;4.73;3.37;;;13.60;99.90;;;;;;4942387;28;20497;-71
2021/09/19 08:04:04;;;;;;;4.57;2.93;;;13.60;99.90;;;;;;4935360;29;20474;-70
2021/09/19 08:06:31;;;;;;;7.30;3.50;;;13.60;99.90;;;;;;4955667;28;20499;-72
2021/09/19 08:08:58;;;;;;;5.43;3.67;;;13.70;99.90;;;;;;4956123;28;20511;-71
2021/09/19 08:11:25;;;;;;;3.90;3.30;;;13.70;99.90;;;;;;4940373;28;21064;-71
2021/09/19 08:13:56;;;;;;;3.27;3.07;;;13.80;99.90;;;;;;4934925;29;20540;-72
2021/09/19 08:16:23;;;;;;;3.47;3.27;;;13.90;99.90;;;;;;4948560;29;20553;-72
2021/09/19 08:18:52;;;;;;;3.07;2.87;;;13.90;99.90;;;;;;4952405;29;20572;-72
2021/09/19 08:21:18;;;;;;;6.70;4.07;;;14.00;99.90;;;;;;4942636;28;20532;-72
2021/09/19 08:23:45;;;;;;;3.40;3.13;;;14.00;99.90;;;;;;4950071;28;20473;-71
2021/09/19 08:26:12;;;;;;;3.63;3.03;;;14.10;99.90;;;;;;4950280;29;20495;-72
2021/09/19 08:28:38;;;;;;;3.70;3.60;;;14.10;99.90;;;;;;4940799;28;20466;-71
2021/09/19 08:31:05;;;;;;;4.97;3.90;;;14.10;99.90;;;;;;4948926;28;20571;-71
2021/09/19 08:33:32;;;;;;;3.30;3.10;;;14.20;99.90;;;;;;4954082;28;20465;-71
2021/09/19 08:36:00;;;;;;;3.10;2.80;;;14.20;99.90;;;;;;4954603;28;20968;-71
2021/09/19 08:38:27;;;;;;;3.30;3.07;;;14.20;99.90;;;;;;4954070;28;20499;-71
2021/09/19 08:40:53;;;;;;;3.90;2.63;;;14.20;99.90;;;;;;4954329;28;20544;-72
2021/09/19 08:43:20;;;;;;;3.13;2.93;;;14.30;99.90;;;;;;4953244;28;20480;-71
2021/09/19 08:45:48;;;;;;;3.10;2.90;;;14.30;99.90;;;;;;4948958;28;21319;-69
2021/09/19 08:48:16;;;;;;;2.73;2.30;;;14.40;99.90;;;;;;4949714;28;20470;-71
2021/09/19 08:50:43;;;;;;;3.43;3.13;;;14.50;99.90;;;;;;4952252;28;20481;-71
2021/09/19 08:53:13;;;;;;;3.80;2.93;;;14.50;99.90;;;;;;4940021;28;20478;-69
2021/09/19 08:55:39;;;;;;;2.63;2.43;;;14.50;99.90;;;;;;4943779;29;20465;-70
2021/09/19 08:58:06;;;;;;;3.47;3.27;;;14.60;99.90;;;;;;4948168;28;20541;-68
2021/09/19 09:00:40;;;;;;;2.50;2.40;;;14.60;99.90;;;;;;4946973;29;20551;-69
2021/09/19 09:03:11;;;;;;;2.63;2.53;;;14.70;99.90;;;;;;4951363;28;20476;-70
2021/09/19 09:05:38;;;;;;;3.30;3.10;;;14.70;99.90;;;;;;4953522;28;20467;-68
2021/09/19 09:08:06;;;;;;;3.10;3.00;;;14.80;99.90;;;;;;4952710;28;20477;-69
2021/09/19 09:10:38;;;;;;;3.20;2.90;;;14.90;99.90;;;;;;4949410;29;20842;-70
2021/09/19 09:13:08;;;;;;;2.97;2.80;;;15.00;99.90;;;;;;4950660;28;20473;-69
2021/09/19 09:15:38;;;;;;;3.00;2.70;;;15.10;99.90;;;;;;4939564;28;20525;-69
2021/09/19 09:18:05;;;;;;;3.07;2.73;;;15.20;99.90;;;;;;4948075;29;20482;-70
2021/09/19 09:20:51;;;;;;;3.77;3.23;;;15.30;99.90;;;;;;4949930;28;20485;-69
2021/09/19 09:23:27;;;;;;;2.67;2.43;;;15.40;99.90;;;;;;4937294;29;20531;-68
2021/09/19 09:26:22;;;;;;;2.63;2.50;;;15.50;99.90;;;;;;4953787;28;20514;-70
2021/09/19 09:28:51;;;;;;;2.30;2.20;;;15.60;99.90;;;;;;4947409;29;20805;-73
2021/09/19 09:31:27;;;;;;;2.73;2.53;;;15.70;99.90;;;;;;4953779;28;21004;-72
2021/09/19 09:33:59;;;;;;;2.20;2.10;;;15.70;99.90;;;;;;4952928;28;20456;-72
2021/09/19 09:36:32;;;;;;;2.37;2.27;;;15.80;99.90;;;;;;4954597;28;21010;-72
2021/09/19 09:38:58;;;;;;;2.30;2.20;;;15.80;99.90;;;;;;4951107;28;20493;-71
2021/09/19 09:41:39;;;;;;;2.13;2.03;;;15.90;99.90;;;;;;4944905;28;20554;-72
2021/09/19 09:44:24;;;;;;;2.47;2.37;;;15.90;99.90;;;;;;4946492;28;20468;-72
2021/09/19 09:46:52;;;;;;;2.33;2.13;;;16.00;99.90;;;;;;4955289;28;20968;-72
2021/09/19 09:49:23;;;;;;;2.30;2.20;;;16.20;99.90;;;;;;4955022;28;20560;-73
2021/09/19 09:51:49;;;;;;;2.03;1.93;;;16.30;99.90;;;;;;4954371;28;20563;-73
2021/09/19 09:54:17;;;;;;;1.97;1.97;;;16.40;99.90;;;;;;4953471;29;20465;-71
2021/09/19 09:56:47;;;;;;;2.20;2.10;;;16.50;99.90;;;;;;4951736;28;20480;-70
2021/09/19 09:59:16;;;;;;;2.43;2.33;;;16.50;99.90;;;;;;4936393;28;20505;-73
2021/09/19 10:01:44;;;;;;;4.00;2.37;;;16.50;99.90;;;;;;4934678;29;20588;-72
2021/09/19 10:04:11;;;;;;;2.30;2.20;;;16.50;99.90;;;;;;4935140;29;20465;-71
2021/09/19 10:06:38;;;;;;;2.10;2.10;;;16.40;99.90;;;;;;4935242;29;20564;-71
2021/09/19 10:09:05;;;;;;;2.20;2.20;;;16.50;99.90;;;;;;4951538;29;20507;-71
2021/09/19 10:11:32;;;;;;;2.60;2.03;;;16.50;99.90;;;;;;4954308;28;20953;-70
2021/09/19 10:14:00;;;;;;;2.33;2.23;;;16.60;99.90;;;;;;4934289;28;20477;-71
2021/09/19 10:16:28;;;;;;;3.57;2.70;;;16.60;99.90;;;;;;4950757;29;20519;-71
2021/09/19 10:18:56;;;;;;;2.03;2.03;;;16.60;99.90;;;;;;4942561;29;21020;-71
2021/09/19 10:21:26;;;;;;;2.40;2.30;;;16.70;99.90;;;;;;4940024;29;20554;-71
2021/09/19 10:23:56;;;;;;;4.80;2.00;;;16.80;99.90;;;;;;4935784;28;20477;-72
2021/09/19 10:26:24;;;;;;;2.50;2.40;;;16.80;99.90;;;;;;4935625;29;20473;-72
2021/09/19 10:28:53;;;;;;;2.80;2.57;;;16.80;99.90;;;;;;4952837;29;20802;-71
2021/09/19 10:31:29;;;;;;;2.53;2.00;;;16.80;99.90;;;;;;4956986;28;20562;-73
2021/09/19 10:33:58;;;;;;;2.30;2.30;;;16.90;99.90;;;;;;4945155;28;20972;-71
2021/09/19 10:36:30;;;;;;;2.23;2.13;;;17.00;99.90;;;;;;4957405;28;20476;-70
2021/09/19 10:39:27;;;;;;;2.80;2.70;;;17.10;99.90;;;;;;4944218;28;20585;-70
2021/09/19 10:42:20;;;;;;;2.03;2.03;;;16.80;99.90;;;;;;4938122;29;20486;-71
2021/09/19 10:45:07;;;;;;;2.00;1.80;;;16.70;99.90;;;;;;4936790;29;20487;-71
2021/09/19 10:47:39;;;;;;;1.97;1.97;;;16.70;99.90;;;;;;4940701;29;20883;-71
2021/09/19 10:50:28;;;;;;;2.37;2.27;;;16.70;99.90;;;;;;4941508;28;20481;-71
2021/09/19 10:52:57;;;;;;;2.10;2.10;;;16.80;99.90;;;;;;4942125;29;20452;-70
2021/09/19 10:55:29;;;;;;;2.10;2.00;;;16.80;99.90;;;;;;4937590;29;20534;-70
2021/09/19 10:57:59;;;;;;;2.20;1.97;;;16.80;99.90;;;;;;4941125;29;20464;-70
2021/09/19 11:00:27;;;;;;;2.97;2.30;;;16.80;99.90;;;;;;4956496;28;20484;-70
2021/09/19 11:03:12;;;;;;;1.90;1.90;;;16.80;99.90;;;;;;4956156;28;20916;-70
2021/09/19 11:05:44;;;;;;;2.47;2.37;;;16.90;99.90;;;;;;4944792;28;20868;-71
2021/09/19 11:08:40;;;;;;;2.30;2.30;;;17.00;99.90;;;;;;4955075;29;20460;-72
2021/09/19 11:11:27;;;;;;;1.80;1.73;;;17.10;99.90;;;;;;4937649;28;20493;-72
2021/09/19 11:14:02;;;;;;;2.47;2.27;;;17.10;99.90;;;;;;4936880;29;20480;-70
2021/09/19 11:16:35;;;;;;;1.80;1.70;;;17.10;99.90;;;;;;4945334;29;20862;-70
2021/09/19 11:19:05;;;;;;;2.20;2.00;;;17.20;99.90;;;;;;4955530;29;20484;-70
2021/09/19 11:21:39;;;;;;;1.67;1.67;;;17.10;99.90;;;;;;4950031;28;20543;-70
2021/09/19 11:24:08;;;;;;;2.27;2.03;;;17.20;99.90;;;;;;4941834;29;20492;-70
2021/09/19 11:26:38;;;;;;;1.70;1.70;;;17.30;99.90;;;;;;4938059;29;20465;-71
2021/09/19 11:29:08;;;;;;;2.20;1.93;;;17.20;99.90;;;;;;4938310;29;20465;-70
2021/09/19 11:31:35;;;;;;;3.17;1.70;;;17.20;99.90;;;;;;4942159;29;20493;-70
2021/09/19 11:34:10;;;;;;;1.83;1.73;;;17.30;99.90;;;;;;4950897;28;20595;-70
2021/09/19 11:36:41;;;;;;;2.30;2.30;;;17.30;99.90;;;;;;4946873;29;20937;-69
2021/09/19 11:39:08;;;;;;;2.17;1.97;;;17.20;99.90;;;;;;4954860;28;20488;-70
2021/09/19 11:41:35;;;;;;;1.87;1.83;;;17.20;99.90;;;;;;4955529;29;20488;-69
2021/09/19 11:44:03;;;;;;;1.70;1.60;;;17.30;99.90;;;;;;4951351;28;20464;-69
2021/09/19 11:46:30;;;;;;;7.10;6.77;;;17.40;99.90;;;;;;4949535;28;21043;-70
2021/09/19 11:48:57;;;;;;;1.70;1.70;;;17.50;99.90;;;;;;4949583;28;20461;-73
2021/09/19 11:51:26;;;;;;;2.57;2.20;;;17.50;99.90;;;;;;4951797;29;20476;-69
2021/09/19 11:53:55;;;;;;;2.67;2.47;;;17.50;99.90;;;;;;4948625;28;20950;-69
2021/09/19 11:56:24;;;;;;;2.13;2.13;;;17.50;99.90;;;;;;4948677;29;20567;-70
2021/09/19 11:58:51;;;;;;;1.80;1.80;;;17.50;99.90;;;;;;4945286;28;20576;-70
2021/09/19 12:01:23;;;;;;;2.00;1.80;;;17.40;99.90;;;;;;4950879;28;20861;-70
2021/09/19 12:03:50;;;;;;;2.27;2.17;;;17.20;99.90;;;;;;4947610;29;20756;-71
2021/09/19 12:06:17;;;;;;;2.00;1.90;;;17.10;99.90;;;;;;4944745;28;20465;-70
2021/09/19 12:08:46;;;;;;;1.47;1.47;;;16.90;99.90;;;;;;4948959;28;20462;-70
2021/09/19 12:11:13;;;;;;;1.83;1.73;;;16.80;99.90;;;;;;4936324;29;20482;-70
2021/09/19 12:13:47;;;;;;;2.10;1.90;;;16.80;99.90;;;;;;4940029;29;20457;-69
2021/09/19 12:16:15;;;;;;;1.80;1.80;;;16.90;99.90;;;;;;4944543;28;20461;-70
2021/09/19 12:18:44;;;;;;;2.17;2.07;;;17.00;99.90;;;;;;4936321;29;20493;-70
2021/09/19 12:21:13;;;;;;;1.80;1.80;;;17.10;99.90;;;;;;4939665;28;21002;-70
2021/09/19 12:23:43;;;;;;;4.83;2.10;;;17.20;99.90;;;;;;4935991;29;20524;-69
2021/09/19 12:26:15;;;;;;;1.60;1.50;;;17.40;99.90;;;;;;4936145;29;20544;-70
2021/09/19 12:28:43;;;;;;;1.40;1.40;;;17.60;99.90;;;;;;4949246;29;20461;-69
2021/09/19 12:31:11;;;;;;;2.00;1.87;;;17.70;99.90;;;;;;4946197;28;20668;-69
2021/09/19 12:33:53;;;;;;;1.83;1.40;;;17.70;99.90;;;;;;4943104;29;20464;-70
2021/09/19 12:36:21;;;;;;;1.60;1.60;;;17.70;99.90;;;;;;4946303;28;21029;-70
2021/09/19 12:38:48;;;;;;;1.90;1.80;;;17.70;99.90;;;;;;4954654;28;20543;-70
2021/09/19 12:41:16;;;;;;;1.73;1.60;;;17.70;99.90;;;;;;4947071;28;20553;-70
2021/09/19 12:43:44;;;;;;;1.73;1.63;;;17.60;99.90;;;;;;4935436;29;20537;-70
2021/09/19 12:46:15;;;;;;;1.90;1.50;;;17.50;99.90;;;;;;4941806;29;20472;-71
2021/09/19 12:48:44;;;;;;;1.73;1.70;;;17.50;99.90;;;;;;4954758;28;20575;-73
2021/09/19 12:51:15;;;;;;;2.13;2.00;;;17.40;99.90;;;;;;4948944;28;20482;-73
2021/09/19 12:53:45;;;;;;;2.50;1.80;;;17.40;99.90;;;;;;4935737;29;20458;-73
2021/09/19 12:56:12;;;;;;;2.03;1.93;;;17.30;99.90;;;;;;4940978;28;20547;-73
2021/09/19 12:58:40;;;;;;;3.83;1.73;;;17.40;99.90;;;;;;4954296;28;20535;-74
2021/09/19 13:01:10;;;;;;;1.43;1.43;;;17.30;99.90;;;;;;4953197;28;20520;-73
2021/09/19 13:03:37;;;;;;;1.87;1.77;;;17.40;99.90;;;;;;4954255;28;20471;-74
2021/09/19 13:06:04;;;;;;;2.13;1.93;;;17.40;99.90;;;;;;4943719;28;20469;-74
2021/09/19 13:08:31;;;;;;;1.50;1.50;;;17.40;99.90;;;;;;4935911;29;20813;-74
2021/09/19 13:10:57;;;;;;;1.73;1.63;;;17.30;99.90;;;;;;4943397;28;20493;-73
2021/09/19 13:13:24;;;;;;;1.60;1.60;;;17.30;99.90;;;;;;4952612;28;20517;-73
2021/09/19 13:15:52;;;;;;;1.93;1.83;;;17.30;99.90;;;;;;4946422;28;20462;-74
2021/09/19 13:18:19;;;;;;;1.80;1.80;;;17.20;99.90;;;;;;4934956;29;20477;-74
2021/09/19 13:20:46;;;;;;;1.30;1.30;;;17.10;99.90;;;;;;4941049;28;20488;-73
2021/09/19 13:23:12;;;;;;;2.87;1.67;;;17.10;99.90;;;;;;4956657;28;20476;-74
2021/09/19 13:25:39;;;;;;;2.80;2.27;;;17.10;99.90;;;;;;4951455;28;20477;-74
2021/09/19 13:28:06;;;;;;;2.33;2.23;;;17.10;99.90;;;;;;4935050;29;20465;-70
2021/09/19 13:30:33;;;;;;;2.00;1.90;;;17.00;99.90;;;;;;4938000;29;20970;-70
2021/09/19 13:33:01;;;;;;;1.80;1.80;;;17.00;99.90;;;;;;4952835;28;20945;-70
2021/09/19 13:35:28;;;;;;;1.57;1.50;;;16.90;99.90;;;;;;4937513;29;20576;-71
2021/09/19 13:37:54;;;;;;;4.40;1.97;;;16.80;99.90;;;;;;4954531;28;20460;-71
2021/09/19 13:40:22;;;;;;;1.57;1.57;;;16.70;99.90;;;;;;4936098;29;20481;-71
2021/09/19 13:42:49;;;;;;;1.60;1.60;;;16.70;99.90;;;;;;4949353;29;20497;-72
2021/09/19 13:45:15;;;;;;;2.00;1.90;;;16.70;99.90;;;;;;4953924;28;20476;-71
2021/09/19 13:47:43;;;;;;;1.93;1.83;;;16.60;99.90;;;;;;4958567;29;20457;-71
2021/09/19 13:50:11;;;;;;;1.90;1.87;;;16.60;99.90;;;;;;4965243;28;20556;-71
2021/09/19 13:52:38;;;;;;;4.03;2.13;;;16.70;99.90;;;;;;4945963;28;20493;-72
2021/09/19 13:55:05;;;;;;;2.07;1.83;;;16.70;99.90;;;;;;4945671;29;20469;-72
2021/09/19 13:57:32;;;;;;;1.70;1.70;;;16.80;99.90;;;;;;4956106;29;20485;-72
2021/09/19 13:59:59;;;;;;;2.03;1.93;;;16.90;99.90;;;;;;4950583;28;20567;-72
2021/09/19 14:02:25;;;;;;;1.80;1.80;;;17.00;99.90;;;;;;4960222;28;20998;-71
2021/09/19 14:04:52;;;;;;;1.77;1.77;;;17.00;99.90;;;;;;4959778;29;20605;-72
2021/09/19 14:07:20;;;;;;;1.80;1.80;;;17.10;99.90;;;;;;4948660;29;20465;-72
2021/09/19 14:09:47;;;;;;;2.30;1.80;;;17.10;99.90;;;;;;4946289;29;20524;-72
2021/09/19 14:12:14;;;;;;;1.93;1.80;;;17.00;99.90;;;;;;4956808;28;20856;-72
2021/09/19 14:14:40;;;;;;;2.33;2.23;;;17.00;99.90;;;;;;4955177;28;20978;-73
2021/09/19 14:17:07;;;;;;;2.10;2.00;;;17.00;99.90;;;;;;4948927;29;20461;-71
2021/09/19 14:19:34;;;;;;;2.33;2.20;;;16.90;99.90;;;;;;4963150;28;20488;-72
2021/09/19 14:22:00;;;;;;;1.80;1.80;;;16.80;99.90;;;;;;4953262;28;20592;-71
2021/09/19 14:24:28;;;;;;;1.70;1.70;;;16.80;99.90;;;;;;4939099;29;20497;-71
2021/09/19 14:26:55;;;;;;;1.50;1.50;;;16.70;99.90;;;;;;4938613;29;20461;-73
2021/09/19 14:29:22;;;;;;;2.40;2.30;;;16.70;99.90;;;;;;4938265;29;20561;-72
2021/09/19 14:31:49;;;;;;;2.13;2.03;;;16.70;99.90;;;;;;4940080;29;20485;-73
2021/09/19 14:34:15;;;;;;;2.90;2.80;;;16.70;99.90;;;;;;4938443;29;20501;-72
2021/09/19 14:36:42;;;;;;;2.83;2.63;;;16.60;99.90;;;;;;4938335;29;20890;-72
2021/09/19 14:39:09;;;;;;;2.73;2.53;;;16.60;99.90;;;;;;4938208;29;20552;-72
2021/09/19 14:41:37;;;;;;;2.03;1.83;;;16.60;99.90;;;;;;4937867;29;20993;-72
2021/09/19 14:44:04;;;;;;;2.10;1.73;;;16.50;99.90;;;;;;4937365;29;20474;-71
2021/09/19 14:46:31;;;;;;;2.03;2.03;;;16.50;99.90;;;;;;4937364;29;20474;-71
2021/09/19 14:48:58;;;;;;;2.27;2.17;;;16.50;99.90;;;;;;4938803;29;20521;-71
2021/09/19 14:51:25;;;;;;;2.83;2.57;;;16.60;99.90;;;;;;4937346;29;20500;-72
2021/09/19 14:53:54;;;;;;;2.33;2.13;;;16.50;99.90;;;;;;4937431;29;20469;-72
2021/09/19 14:56:21;;;;;;;2.13;1.90;;;16.50;99.90;;;;;;4941947;29;20594;-71
2021/09/19 14:58:50;;;;;;;3.87;3.20;;;16.60;99.90;;;;;;4942388;29;21024;-71
2021/09/19 15:01:17;;;;;;;2.50;2.40;;;16.70;99.90;;;;;;4944161;29;20489;-72
2021/09/19 15:03:43;;;;;;;2.30;2.20;;;16.70;99.90;;;;;;4948463;29;20472;-71
2021/09/19 15:06:10;;;;;;;2.10;2.10;;;16.70;99.90;;;;;;4956152;28;20476;-72
2021/09/19 15:08:37;;;;;;;1.90;1.90;;;16.70;99.90;;;;;;4948936;28;20497;-72
2021/09/19 15:11:03;;;;;;;2.10;2.00;;;16.70;99.90;;;;;;4947314;28;20480;-71
2021/09/19 15:13:30;;;;;;;2.03;1.90;;;16.60;99.90;;;;;;4954416;28;20468;-72
2021/09/19 15:16:00;;;;;;;2.70;2.60;;;16.50;99.90;;;;;;4952854;28;20465;-71
2021/09/19 15:18:27;;;;;;;2.43;2.33;;;16.50;99.90;;;;;;4956116;28;20953;-72
2021/09/19 15:20:55;;;;;;;2.30;2.17;;;16.40;99.90;;;;;;4948136;28;20532;-72
2021/09/19 15:23:22;;;;;;;2.13;2.10;;;16.30;99.90;;;;;;4956312;28;20472;-72
2021/09/19 15:25:49;;;;;;;2.40;2.20;;;16.30;99.90;;;;;;4940822;28;20516;-72
2021/09/19 15:28:15;;;;;;;2.13;2.03;;;16.30;99.90;;;;;;4950638;29;20492;-71
2021/09/19 15:30:42;;;;;;;2.30;2.20;;;16.40;99.90;;;;;;4954670;28;20480;-72
2021/09/19 15:33:10;;;;;;;2.03;2.03;;;16.30;99.90;;;;;;4962950;28;20461;-72
2021/09/19 15:35:37;;;;;;;3.23;2.50;;;16.20;99.90;;;;;;4965210;28;20488;-72
2021/09/19 15:38:04;;;;;;;2.70;2.60;;;16.20;99.90;;;;;;4952730;28;20961;-72
2021/09/19 15:40:55;;;;;;;2.67;2.57;;;16.10;99.90;;;;;;4956195;28;20496;-72
2021/09/19 15:43:19;;;;;;;2.33;2.23;;;16.00;99.90;;;;;;4944903;29;20498;-72
2021/09/19 15:45:46;;;;;;;2.43;2.33;;;16.00;99.90;;;;;;4937831;29;20472;-71
2021/09/19 15:48:15;;;;;;;1.70;1.70;;;15.90;99.90;;;;;;4936641;28;20470;-72
2021/09/19 15:50:42;;;;;;;2.23;2.10;;;15.90;99.90;;;;;;4944951;28;21001;-71
2021/09/19 15:53:11;;;;;;;2.70;2.50;;;15.90;99.90;;;;;;4936714;29;20473;-71
2021/09/19 15:55:37;;;;;;;2.37;2.27;;;15.80;99.90;;;;;;4939613;29;20779;-73
2021/09/19 15:58:04;;;;;;;2.07;2.07;;;15.80;99.90;;;;;;4936630;29;20894;-72
2021/09/19 16:00:31;;;;;;;2.30;2.17;;;15.80;99.90;;;;;;4937220;28;20505;-72
2021/09/19 16:02:59;;;;;;;2.63;2.53;;;15.80;99.90;;;;;;4937053;29;20481;-73
2021/09/19 16:05:27;;;;;;;2.03;1.93;;;15.80;99.90;;;;;;4941707;29;20461;-70
2021/09/19 16:07:54;;;;;;;2.10;2.00;;;15.70;99.90;;;;;;4939902;29;22491;-69
2021/09/19 16:10:24;;;;;;;2.93;2.57;;;15.70;99.90;;;;;;4943592;28;20472;-70
2021/09/19 16:12:56;;;;;;;2.33;2.10;;;15.70;99.90;;;;;;4944329;28;20894;-70
2021/09/19 16:15:23;;;;;;;2.17;2.07;;;15.60;99.90;;;;;;4944494;29;20810;-71
2021/09/19 16:17:49;;;;;;;5.70;2.00;;;15.60;99.90;;;;;;4955274;28;20503;-70
2021/09/19 16:20:16;;;;;;;1.90;1.90;;;15.60;99.90;;;;;;4945079;29;20497;-69
2021/09/19 16:22:44;;;;;;;2.20;2.10;;;15.60;99.90;;;;;;4951686;28;20485;-69
2021/09/19 16:25:11;;;;;;;2.80;2.67;;;15.60;99.90;;;;;;4944075;28;20553;-69
2021/09/19 16:27:38;;;;;;;2.20;2.10;;;15.50;99.90;;;;;;4937169;29;20470;-68
2021/09/19 16:30:05;;;;;;;2.10;2.00;;;15.50;99.90;;;;;;4937167;28;20461;-69
2021/09/19 16:32:32;;;;;;;5.37;2.03;;;15.50;99.90;;;;;;4942167;29;20488;-70
2021/09/19 16:34:59;;;;;;;2.67;2.30;;;15.40;99.90;;;;;;4954536;29;20473;-68
2021/09/19 16:37:25;;;;;;;2.17;2.10;;;15.40;99.90;;;;;;4941051;28;20477;-69
2021/09/19 16:39:53;;;;;;;1.97;1.97;;;15.40;99.90;;;;;;4950294;28;20472;-69
2021/09/19 16:42:20;;;;;;;2.10;2.00;;;15.40;99.90;;;;;;4948383;28;20504;-70
2021/09/19 16:44:50;;;;;;;2.93;2.70;;;15.40;99.90;;;;;;4944932;28;20560;-70
2021/09/19 16:47:16;;;;;;;2.80;2.60;;;15.30;99.90;;;;;;4949407;29;20472;-69
2021/09/19 16:49:43;;;;;;;2.57;2.47;;;15.30;99.90;;;;;;4949215;28;20523;-69
2021/09/19 16:52:10;;;;;;;3.00;2.80;;;15.30;99.90;;;;;;4950028;28;20493;-69
2021/09/19 16:54:36;;;;;;;2.50;2.50;;;15.30;99.90;;;;;;4954317;28;20464;-70